sensor_id;sensor_type;location;lat;lon;timestamp;pressure;altitude;pressure_sealevel;temperature;humidity
67740;BME280;54536;50.090;14.420;2022-09-13T00:00:57;99243.22;;;17.94;59.55
67740;BME280;54536;50.090;14.420;2022-09-13T00:03:34;99236.81;;;17.88;60.03
67740;BME280;54536;50.090;14.420;2022-09-13T00:06:13;99234.84;;;17.97;59.55
67740;BME280;54536;50.090;14.420;2022-09-13T00:08:39;99233.66;;;17.99;59.67
67740;BME280;54536;50.090;14.420;2022-09-13T00:11:06;99240.41;;;17.81;59.70
67740;BME280;54536;50.090;14.420;2022-09-13T00:13:33;99223.06;;;17.85;59.59
67740;BME280;54536;50.090;14.420;2022-09-13T00:15:59;99234.50;;;17.85;60.31
67740;BME280;54536;50.090;14.420;2022-09-13T00:18:28;99228.84;;;17.59;60.30
67740;BME280;54536;50.090;14.420;2022-09-13T00:21:09;99228.31;;;17.48;60.98
67740;BME280;54536;50.090;14.420;2022-09-13T00:23:36;99223.97;;;17.62;61.00
67740;BME280;54536;50.090;14.420;2022-09-13T00:26:08;99227.84;;;17.60;60.68
67740;BME280;54536;50.090;14.420;2022-09-13T00:28:35;99224.34;;;17.59;60.92
67740;BME280;54536;50.090;14.420;2022-09-13T00:31:05;99223.94;;;17.41;61.06
67740;BME280;54536;50.090;14.420;2022-09-13T00:33:31;99215.09;;;17.55;60.99
67740;BME280;54536;50.090;14.420;2022-09-13T00:35:59;99210.72;;;17.47;61.53
67740;BME280;54536;50.090;14.420;2022-09-13T00:38:27;99217.06;;;17.46;61.56
67740;BME280;54536;50.090;14.420;2022-09-13T00:40:54;99210.97;;;17.52;60.44
67740;BME280;54536;50.090;14.420;2022-09-13T00:43:47;99204.03;;;17.37;61.26
67740;BME280;54536;50.090;14.420;2022-09-13T00:48:53;99196.31;;;17.42;61.66
67740;BME280;54536;50.090;14.420;2022-09-13T00:51:22;99191.94;;;17.34;61.45
67740;BME280;54536;50.090;14.420;2022-09-13T00:53:53;99188.47;;;17.34;61.88
67740;BME280;54536;50.090;14.420;2022-09-13T00:56:34;99192.84;;;17.26;61.17
67740;BME280;54536;50.090;14.420;2022-09-13T00:59:12;99189.66;;;17.31;61.20
67740;BME280;54536;50.090;14.420;2022-09-13T01:01:48;99193.94;;;17.32;61.61
67740;BME280;54536;50.090;14.420;2022-09-13T01:04:20;99187.28;;;17.21;61.44
67740;BME280;54536;50.090;14.420;2022-09-13T01:06:51;99182.06;;;17.28;61.39
67740;BME280;54536;50.090;14.420;2022-09-13T01:09:20;99184.59;;;17.36;61.60
67740;BME280;54536;50.090;14.420;2022-09-13T01:11:51;99179.19;;;17.44;60.87
67740;BME280;54536;50.090;14.420;2022-09-13T01:14:22;99176.69;;;17.43;61.02
67740;BME280;54536;50.090;14.420;2022-09-13T01:16:49;99174.44;;;17.40;60.72
67740;BME280;54536;50.090;14.420;2022-09-13T01:19:16;99169.03;;;17.33;60.84
67740;BME280;54536;50.090;14.420;2022-09-13T01:30:25;99173.50;;;17.32;60.43
67740;BME280;54536;50.090;14.420;2022-09-13T01:33:25;99166.31;;;17.12;61.13
67740;BME280;54536;50.090;14.420;2022-09-13T01:36:20;99172.88;;;17.16;60.57
67740;BME280;54536;50.090;14.420;2022-09-13T01:39:14;99168.03;;;17.19;60.80
67740;BME280;54536;50.090;14.420;2022-09-13T01:44:45;99167.41;;;17.17;60.52
67740;BME280;54536;50.090;14.420;2022-09-13T01:47:30;99170.16;;;17.24;60.00
67740;BME280;54536;50.090;14.420;2022-09-13T01:50:26;99157.59;;;17.03;61.42
67740;BME280;54536;50.090;14.420;2022-09-13T01:56:02;99162.72;;;17.19;60.62
67740;BME280;54536;50.090;14.420;2022-09-13T01:58:45;99152.47;;;17.01;60.53
67740;BME280;54536;50.090;14.420;2022-09-13T02:01:21;99141.66;;;17.03;60.32
67740;BME280;54536;50.090;14.420;2022-09-13T02:04:09;99144.50;;;17.01;61.13
67740;BME280;54536;50.090;14.420;2022-09-13T02:06:50;99140.56;;;16.82;61.39
67740;BME280;54536;50.090;14.420;2022-09-13T02:09:24;99143.75;;;16.93;60.61
67740;BME280;54536;50.090;14.420;2022-09-13T02:12:02;99150.91;;;17.07;60.38
67740;BME280;54536;50.090;14.420;2022-09-13T02:14:39;99139.28;;;16.93;61.40
67740;BME280;54536;50.090;14.420;2022-09-13T02:17:12;99142.94;;;16.92;61.11
67740;BME280;54536;50.090;14.420;2022-09-13T02:19:47;99142.22;;;16.98;60.13
67740;BME280;54536;50.090;14.420;2022-09-13T02:22:22;99145.97;;;17.04;60.73
67740;BME280;54536;50.090;14.420;2022-09-13T02:24:56;99135.78;;;16.93;61.07
67740;BME280;54536;50.090;14.420;2022-09-13T02:27:31;99129.88;;;16.91;60.89
67740;BME280;54536;50.090;14.420;2022-09-13T02:30:06;99128.19;;;17.04;60.00
67740;BME280;54536;50.090;14.420;2022-09-13T02:32:39;99125.09;;;17.01;60.72
67740;BME280;54536;50.090;14.420;2022-09-13T02:35:30;99124.72;;;16.89;60.51
67740;BME280;54536;50.090;14.420;2022-09-13T02:38:11;99118.22;;;16.77;60.40
67740;BME280;54536;50.090;14.420;2022-09-13T02:40:51;99118.84;;;16.94;59.94
67740;BME280;54536;50.090;14.420;2022-09-13T02:43:38;99119.47;;;16.66;61.46
67740;BME280;54536;50.090;14.420;2022-09-13T02:46:12;99111.06;;;16.77;60.40
67740;BME280;54536;50.090;14.420;2022-09-13T02:48:52;99114.72;;;16.61;61.04
67740;BME280;54536;50.090;14.420;2022-09-13T02:51:32;99119.88;;;16.78;60.57
67740;BME280;54536;50.090;14.420;2022-09-13T02:54:20;99110.59;;;16.59;61.49
67740;BME280;54536;50.090;14.420;2022-09-13T02:57:15;99118.81;;;16.64;60.60
67740;BME280;54536;50.090;14.420;2022-09-13T02:59:47;99117.47;;;16.68;60.93
67740;BME280;54536;50.090;14.420;2022-09-13T03:02:18;99113.84;;;16.61;60.62
67740;BME280;54536;50.090;14.420;2022-09-13T03:04:49;99111.25;;;16.76;60.23
67740;BME280;54536;50.090;14.420;2022-09-13T03:07:15;99113.72;;;16.77;60.91
67740;BME280;54536;50.090;14.420;2022-09-13T03:09:50;99110.69;;;16.66;61.06
67740;BME280;54536;50.090;14.420;2022-09-13T03:15:32;99101.69;;;16.67;60.47
67740;BME280;54536;50.090;14.420;2022-09-13T03:21:05;99104.25;;;16.60;60.45
67740;BME280;54536;50.090;14.420;2022-09-13T03:32:04;99101.09;;;16.79;60.56
67740;BME280;54536;50.090;14.420;2022-09-13T03:40:07;99121.56;;;16.56;61.58
67740;BME280;54536;50.090;14.420;2022-09-13T03:42:50;99126.47;;;16.29;62.76
67740;BME280;54536;50.090;14.420;2022-09-13T03:45:23;99119.34;;;16.45;62.79
67740;BME280;54536;50.090;14.420;2022-09-13T03:47:51;99133.06;;;16.33;63.21
67740;BME280;54536;50.090;14.420;2022-09-13T03:50:21;99131.22;;;16.34;62.77
67740;BME280;54536;50.090;14.420;2022-09-13T03:52:58;99131.16;;;16.42;62.08
67740;BME280;54536;50.090;14.420;2022-09-13T03:55:26;99131.50;;;16.39;62.70
67740;BME280;54536;50.090;14.420;2022-09-13T03:57:53;99130.53;;;16.17;62.41
67740;BME280;54536;50.090;14.420;2022-09-13T04:00:19;99140.59;;;16.22;63.51
67740;BME280;54536;50.090;14.420;2022-09-13T04:02:46;99132.44;;;16.46;62.52
67740;BME280;54536;50.090;14.420;2022-09-13T04:05:12;99127.13;;;16.46;62.65
67740;BME280;54536;50.090;14.420;2022-09-13T04:07:38;99129.69;;;16.39;62.40
67740;BME280;54536;50.090;14.420;2022-09-13T04:10:05;99131.34;;;16.55;61.83
67740;BME280;54536;50.090;14.420;2022-09-13T04:12:31;99127.78;;;16.63;61.64
67740;BME280;54536;50.090;14.420;2022-09-13T04:14:57;99127.03;;;16.54;61.51
67740;BME280;54536;50.090;14.420;2022-09-13T04:17:23;99128.97;;;16.60;61.38
67740;BME280;54536;50.090;14.420;2022-09-13T04:19:49;99129.13;;;16.44;62.04
67740;BME280;54536;50.090;14.420;2022-09-13T04:22:15;99123.09;;;16.50;62.17
67740;BME280;54536;50.090;14.420;2022-09-13T04:24:42;99124.13;;;16.49;62.16
67740;BME280;54536;50.090;14.420;2022-09-13T04:27:09;99123.00;;;16.44;61.32
67740;BME280;54536;50.090;14.420;2022-09-13T04:29:35;99121.41;;;16.34;62.06
67740;BME280;54536;50.090;14.420;2022-09-13T04:32:02;99120.09;;;16.38;61.36
67740;BME280;54536;50.090;14.420;2022-09-13T04:34:28;99121.66;;;16.10;61.95
67740;BME280;54536;50.090;14.420;2022-09-13T04:36:54;99119.72;;;16.04;62.06
67740;BME280;54536;50.090;14.420;2022-09-13T04:39:21;99118.00;;;15.88;62.43
67740;BME280;54536;50.090;14.420;2022-09-13T04:41:49;99116.16;;;15.88;62.59
67740;BME280;54536;50.090;14.420;2022-09-13T04:44:17;99111.50;;;16.13;61.85
67740;BME280;54536;50.090;14.420;2022-09-13T04:46:46;99113.72;;;15.87;62.55
67740;BME280;54536;50.090;14.420;2022-09-13T04:49:14;99111.44;;;15.99;61.96
67740;BME280;54536;50.090;14.420;2022-09-13T04:51:42;99106.75;;;15.86;62.21
67740;BME280;54536;50.090;14.420;2022-09-13T04:54:10;99104.50;;;15.98;61.65
67740;BME280;54536;50.090;14.420;2022-09-13T04:56:36;99102.25;;;16.09;61.58
67740;BME280;54536;50.090;14.420;2022-09-13T04:59:02;99097.13;;;15.85;61.55
67740;BME280;54536;50.090;14.420;2022-09-13T05:01:29;99101.19;;;15.73;62.34
67740;BME280;54536;50.090;14.420;2022-09-13T05:03:55;99089.88;;;16.02;61.54
67740;BME280;54536;50.090;14.420;2022-09-13T05:06:21;99090.88;;;16.01;61.56
67740;BME280;54536;50.090;14.420;2022-09-13T05:08:53;99092.53;;;16.02;62.04
67740;BME280;54536;50.090;14.420;2022-09-13T05:11:25;99094.00;;;16.04;61.07
67740;BME280;54536;50.090;14.420;2022-09-13T05:13:54;99087.47;;;15.92;61.64
67740;BME280;54536;50.090;14.420;2022-09-13T05:16:22;99093.50;;;15.86;62.48
67740;BME280;54536;50.090;14.420;2022-09-13T05:18:49;99105.78;;;15.79;61.61
67740;BME280;54536;50.090;14.420;2022-09-13T05:21:16;99106.53;;;15.64;62.40
67740;BME280;54536;50.090;14.420;2022-09-13T05:23:43;99113.16;;;15.68;61.98
67740;BME280;54536;50.090;14.420;2022-09-13T05:26:10;99116.81;;;15.90;62.29
67740;BME280;54536;50.090;14.420;2022-09-13T05:28:36;99121.00;;;15.85;61.59
67740;BME280;54536;50.090;14.420;2022-09-13T05:31:12;99123.03;;;15.83;61.91
67740;BME280;54536;50.090;14.420;2022-09-13T05:33:40;99121.94;;;15.92;61.47
67740;BME280;54536;50.090;14.420;2022-09-13T05:36:06;99115.69;;;15.85;62.04
67740;BME280;54536;50.090;14.420;2022-09-13T05:38:33;99119.53;;;15.82;62.29
67740;BME280;54536;50.090;14.420;2022-09-13T05:41:01;99115.22;;;16.04;61.29
67740;BME280;54536;50.090;14.420;2022-09-13T05:43:31;99114.88;;;16.07;61.74
67740;BME280;54536;50.090;14.420;2022-09-13T05:46:08;99119.41;;;15.99;61.93
67740;BME280;54536;50.090;14.420;2022-09-13T05:48:36;99118.69;;;16.05;61.81
67740;BME280;54536;50.090;14.420;2022-09-13T05:53:36;99120.78;;;16.32;61.37
67740;BME280;54536;50.090;14.420;2022-09-13T05:56:06;99123.63;;;16.31;61.16
67740;BME280;54536;50.090;14.420;2022-09-13T05:58:33;99124.06;;;16.34;60.26
67740;BME280;54536;50.090;14.420;2022-09-13T06:01:00;99129.63;;;16.25;60.37
67740;BME280;54536;50.090;14.420;2022-09-13T06:03:26;99125.09;;;16.33;60.68
67740;BME280;54536;50.090;14.420;2022-09-13T06:05:56;99108.25;;;16.26;60.63
67740;BME280;54536;50.090;14.420;2022-09-13T06:08:25;99106.34;;;16.35;61.22
67740;BME280;54536;50.090;14.420;2022-09-13T06:10:59;99113.91;;;16.23;61.38
67740;BME280;54536;50.090;14.420;2022-09-13T06:13:26;99112.47;;;16.50;59.94
67740;BME280;54536;50.090;14.420;2022-09-13T06:15:55;99110.13;;;16.55;60.23
67740;BME280;54536;50.090;14.420;2022-09-13T06:18:21;99102.06;;;16.63;60.21
67740;BME280;54536;50.090;14.420;2022-09-13T06:20:48;99102.50;;;16.67;59.94
67740;BME280;54536;50.090;14.420;2022-09-13T06:23:14;99091.72;;;16.69;59.48
67740;BME280;54536;50.090;14.420;2022-09-13T06:25:41;99090.84;;;16.76;59.65
67740;BME280;54536;50.090;14.420;2022-09-13T06:28:09;99085.44;;;16.84;59.77
67740;BME280;54536;50.090;14.420;2022-09-13T06:30:35;99082.22;;;16.89;59.17
67740;BME280;54536;50.090;14.420;2022-09-13T06:33:01;99084.22;;;16.87;59.26
67740;BME280;54536;50.090;14.420;2022-09-13T06:35:27;99084.63;;;16.84;60.01
67740;BME280;54536;50.090;14.420;2022-09-13T06:37:54;99084.34;;;16.79;60.56
67740;BME280;54536;50.090;14.420;2022-09-13T06:40:21;99076.34;;;16.94;59.38
67740;BME280;54536;50.090;14.420;2022-09-13T06:42:47;99080.88;;;16.78;59.84
67740;BME280;54536;50.090;14.420;2022-09-13T06:45:14;99089.00;;;16.92;60.16
67740;BME280;54536;50.090;14.420;2022-09-13T06:47:41;99088.63;;;16.95;59.97
67740;BME280;54536;50.090;14.420;2022-09-13T06:50:07;99090.47;;;16.94;60.18
67740;BME280;54536;50.090;14.420;2022-09-13T06:52:34;99086.97;;;17.08;59.44
67740;BME280;54536;50.090;14.420;2022-09-13T06:55:01;99089.16;;;17.05;59.55
67740;BME280;54536;50.090;14.420;2022-09-13T06:57:29;99087.97;;;17.07;60.04
67740;BME280;54536;50.090;14.420;2022-09-13T06:59:55;99093.19;;;17.16;59.83
67740;BME280;54536;50.090;14.420;2022-09-13T07:02:21;99086.09;;;17.23;59.34
67740;BME280;54536;50.090;14.420;2022-09-13T07:04:49;99089.31;;;17.33;59.45
67740;BME280;54536;50.090;14.420;2022-09-13T07:07:16;99078.41;;;17.28;59.50
67740;BME280;54536;50.090;14.420;2022-09-13T07:09:42;99077.22;;;17.30;59.79
67740;BME280;54536;50.090;14.420;2022-09-13T07:12:08;99077.00;;;17.32;59.59
67740;BME280;54536;50.090;14.420;2022-09-13T07:14:34;99078.75;;;17.40;59.48
67740;BME280;54536;50.090;14.420;2022-09-13T07:17:00;99071.41;;;17.42;59.00
67740;BME280;54536;50.090;14.420;2022-09-13T07:19:27;99065.34;;;17.69;58.79
67740;BME280;54536;50.090;14.420;2022-09-13T07:21:55;99069.06;;;17.75;58.69
67740;BME280;54536;50.090;14.420;2022-09-13T07:24:22;99066.34;;;17.68;58.39
67740;BME280;54536;50.090;14.420;2022-09-13T07:26:49;99071.09;;;17.73;58.83
67740;BME280;54536;50.090;14.420;2022-09-13T07:29:18;99067.34;;;17.82;58.23
67740;BME280;54536;50.090;14.420;2022-09-13T07:31:49;99067.06;;;17.98;57.64
67740;BME280;54536;50.090;14.420;2022-09-13T07:34:21;99065.28;;;18.06;58.08
67740;BME280;54536;50.090;14.420;2022-09-13T07:36:49;99067.13;;;18.05;57.72
67740;BME280;54536;50.090;14.420;2022-09-13T07:39:16;99061.16;;;18.03;58.41
67740;BME280;54536;50.090;14.420;2022-09-13T07:41:43;99059.41;;;18.17;57.55
67740;BME280;54536;50.090;14.420;2022-09-13T07:44:12;99053.91;;;18.18;57.61
67740;BME280;54536;50.090;14.420;2022-09-13T07:46:39;99060.72;;;18.28;57.18
67740;BME280;54536;50.090;14.420;2022-09-13T07:49:07;99047.09;;;18.44;57.31
67740;BME280;54536;50.090;14.420;2022-09-13T07:51:35;99053.03;;;18.39;57.52
67740;BME280;54536;50.090;14.420;2022-09-13T07:54:04;99055.94;;;18.44;57.47
67740;BME280;54536;50.090;14.420;2022-09-13T07:56:33;99052.13;;;18.25;57.50
67740;BME280;54536;50.090;14.420;2022-09-13T07:59:03;99052.97;;;18.33;57.32
67740;BME280;54536;50.090;14.420;2022-09-13T08:01:35;99045.72;;;18.48;57.25
67740;BME280;54536;50.090;14.420;2022-09-13T08:04:05;99047.59;;;18.54;57.15
67740;BME280;54536;50.090;14.420;2022-09-13T08:06:33;99048.09;;;18.71;56.46
67740;BME280;54536;50.090;14.420;2022-09-13T08:09:01;99054.41;;;18.98;55.94
67740;BME280;54536;50.090;14.420;2022-09-13T08:11:38;99051.16;;;19.16;55.29
67740;BME280;54536;50.090;14.420;2022-09-13T08:14:08;99055.53;;;19.30;55.09
67740;BME280;54536;50.090;14.420;2022-09-13T08:16:35;99051.06;;;19.51;54.45
67740;BME280;54536;50.090;14.420;2022-09-13T08:19:03;99058.88;;;19.52;54.74
67740;BME280;54536;50.090;14.420;2022-09-13T08:21:35;99057.19;;;19.38;55.15
67740;BME280;54536;50.090;14.420;2022-09-13T08:24:04;99049.97;;;19.32;55.53
67740;BME280;54536;50.090;14.420;2022-09-13T08:26:32;99049.84;;;19.53;54.81
67740;BME280;54536;50.090;14.420;2022-09-13T08:29:02;99043.69;;;19.53;54.79
67740;BME280;54536;50.090;14.420;2022-09-13T08:31:29;99054.97;;;19.61;54.68
67740;BME280;54536;50.090;14.420;2022-09-13T08:33:56;99054.41;;;19.73;54.76
67740;BME280;54536;50.090;14.420;2022-09-13T08:36:24;99056.28;;;19.79;54.62
67740;BME280;54536;50.090;14.420;2022-09-13T08:38:57;99058.72;;;19.94;53.89
67740;BME280;54536;50.090;14.420;2022-09-13T08:46:48;99048.63;;;20.55;52.68
67740;BME280;54536;50.090;14.420;2022-09-13T08:49:30;99055.41;;;20.65;52.15
67740;BME280;54536;50.090;14.420;2022-09-13T08:52:47;99057.03;;;20.59;52.49
67740;BME280;54536;50.090;14.420;2022-09-13T08:54:49;99051.47;;;20.74;52.43
67740;BME280;54536;50.090;14.420;2022-09-13T08:57:44;99049.97;;;20.85;52.10
67740;BME280;54536;50.090;14.420;2022-09-13T09:05:48;99037.78;;;21.02;51.16
67740;BME280;54536;50.090;14.420;2022-09-13T09:08:30;99038.97;;;21.13;51.40
67740;BME280;54536;50.090;14.420;2022-09-13T09:14:03;99042.56;;;21.38;51.08
67740;BME280;54536;50.090;14.420;2022-09-13T09:17:07;99025.63;;;21.44;50.94
67740;BME280;54536;50.090;14.420;2022-09-13T09:19:42;99028.03;;;21.59;50.37
67740;BME280;54536;50.090;14.420;2022-09-13T09:22:20;99007.75;;;21.70;50.15
67740;BME280;54536;50.090;14.420;2022-09-13T09:24:57;99004.22;;;21.76;50.24
67740;BME280;54536;50.090;14.420;2022-09-13T09:27:24;99000.50;;;21.77;50.23
67740;BME280;54536;50.090;14.420;2022-09-13T09:29:55;99010.63;;;21.75;49.94
67740;BME280;54536;50.090;14.420;2022-09-13T09:32:47;99005.78;;;21.84;49.78
67740;BME280;54536;50.090;14.420;2022-09-13T09:35:41;98997.50;;;21.92;49.85
67740;BME280;54536;50.090;14.420;2022-09-13T09:38:19;98983.63;;;22.02;49.18
67740;BME280;54536;50.090;14.420;2022-09-13T09:40:47;98984.88;;;21.99;49.37
67740;BME280;54536;50.090;14.420;2022-09-13T09:43:48;98973.66;;;22.09;49.24
67740;BME280;54536;50.090;14.420;2022-09-13T09:46:24;98978.75;;;22.17;48.63
67740;BME280;54536;50.090;14.420;2022-09-13T09:49:32;98996.28;;;22.13;49.26
67740;BME280;54536;50.090;14.420;2022-09-13T09:52:13;98985.88;;;22.23;48.70
67740;BME280;54536;50.090;14.420;2022-09-13T09:54:40;98987.75;;;22.23;48.90
67740;BME280;54536;50.090;14.420;2022-09-13T09:57:06;98984.25;;;22.22;48.96
67740;BME280;54536;50.090;14.420;2022-09-13T09:59:33;98972.88;;;22.27;48.43
67740;BME280;54536;50.090;14.420;2022-09-13T10:02:17;98960.25;;;22.34;48.67
67740;BME280;54536;50.090;14.420;2022-09-13T10:05:05;98956.34;;;22.30;48.49
67740;BME280;54536;50.090;14.420;2022-09-13T10:07:33;98962.94;;;22.34;48.63
67740;BME280;54536;50.090;14.420;2022-09-13T10:10:32;98960.00;;;22.35;48.34
67740;BME280;54536;50.090;14.420;2022-09-13T10:13:04;98957.78;;;22.51;48.44
67740;BME280;54536;50.090;14.420;2022-09-13T10:15:33;98954.03;;;22.70;47.79
67740;BME280;54536;50.090;14.420;2022-09-13T10:20:28;98938.66;;;23.26;45.96
67740;BME280;54536;50.090;14.420;2022-09-13T10:25:43;98922.91;;;23.29;45.04
67740;BME280;54536;50.090;14.420;2022-09-13T10:28:14;98919.16;;;23.30;45.44
67740;BME280;54536;50.090;14.420;2022-09-13T10:30:48;98918.25;;;23.36;44.52
67740;BME280;54536;50.090;14.420;2022-09-13T10:35:54;98924.25;;;23.74;43.76
67740;BME280;54536;50.090;14.420;2022-09-13T10:38:34;98921.22;;;23.94;43.33
67740;BME280;54536;50.090;14.420;2022-09-13T10:41:06;98921.78;;;23.96;43.62
67740;BME280;54536;50.090;14.420;2022-09-13T10:43:35;98918.16;;;23.90;43.57
67740;BME280;54536;50.090;14.420;2022-09-13T10:46:05;98904.38;;;23.63;44.59
67740;BME280;54536;50.090;14.420;2022-09-13T10:48:47;98889.56;;;23.49;45.05
67740;BME280;54536;50.090;14.420;2022-09-13T10:51:36;98879.06;;;23.35;45.30
67740;BME280;54536;50.090;14.420;2022-09-13T10:54:23;98888.13;;;23.34;45.79
67740;BME280;54536;50.090;14.420;2022-09-13T10:56:50;98896.78;;;23.36;46.13
67740;BME280;54536;50.090;14.420;2022-09-13T11:13:58;98910.34;;;23.77;42.91
67740;BME280;54536;50.090;14.420;2022-09-13T12:05:55;98879.28;;;23.93;42.40
67740;BME280;54536;50.090;14.420;2022-09-13T12:11:16;98866.47;;;23.83;43.19
67740;BME280;54536;50.090;14.420;2022-09-13T12:13:53;98862.88;;;23.77;43.11
67740;BME280;54536;50.090;14.420;2022-09-13T12:19:05;98844.19;;;23.71;43.48
67740;BME280;54536;50.090;14.420;2022-09-13T12:21:39;98832.06;;;23.68;43.92
67740;BME280;54536;50.090;14.420;2022-09-13T12:26:58;98838.34;;;23.86;43.19
67740;BME280;54536;50.090;14.420;2022-09-13T12:32:15;98837.72;;;24.36;42.02
67740;BME280;54536;50.090;14.420;2022-09-13T12:37:30;98826.56;;;24.56;41.47
67740;BME280;54536;50.090;14.420;2022-09-13T13:01:37;98795.06;;;24.85;40.53
67740;BME280;54536;50.090;14.420;2022-09-13T13:09:35;98799.78;;;24.94;39.56
67740;BME280;54536;50.090;14.420;2022-09-13T13:12:04;98799.25;;;24.92;39.41
67740;BME280;54536;50.090;14.420;2022-09-13T13:26:07;98787.91;;;25.07;40.88
67740;BME280;54536;50.090;14.420;2022-09-13T13:31:10;98791.19;;;24.92;41.01
67740;BME280;54536;50.090;14.420;2022-09-13T13:33:58;98785.97;;;24.86;41.20
67740;BME280;54536;50.090;14.420;2022-09-13T13:39:11;98772.69;;;24.79;40.94
67740;BME280;54536;50.090;14.420;2022-09-13T13:41:45;98779.78;;;24.85;40.62
67740;BME280;54536;50.090;14.420;2022-09-13T13:46:41;98777.78;;;24.81;40.15
67740;BME280;54536;50.090;14.420;2022-09-13T13:57:32;98768.75;;;24.70;40.11
67740;BME280;54536;50.090;14.420;2022-09-13T14:05:44;98761.97;;;24.67;40.29
67740;BME280;54536;50.090;14.420;2022-09-13T14:10:48;98772.91;;;24.61;40.52
67740;BME280;54536;50.090;14.420;2022-09-13T14:13:31;98763.84;;;24.50;40.98
67740;BME280;54536;50.090;14.420;2022-09-13T14:21:29;98766.22;;;24.35;41.36
67740;BME280;54536;50.090;14.420;2022-09-13T14:26:35;98759.03;;;24.52;41.24
67740;BME280;54536;50.090;14.420;2022-09-13T14:29:06;98754.81;;;24.56;41.52
67740;BME280;54536;50.090;14.420;2022-09-13T14:31:33;98744.72;;;24.63;41.47
67740;BME280;54536;50.090;14.420;2022-09-13T14:33:59;98744.38;;;24.60;41.94
67740;BME280;54536;50.090;14.420;2022-09-13T14:36:26;98733.88;;;24.58;41.64
67740;BME280;54536;50.090;14.420;2022-09-13T14:38:58;98736.00;;;24.56;41.94
67740;BME280;54536;50.090;14.420;2022-09-13T14:41:37;98731.19;;;24.58;41.92
67740;BME280;54536;50.090;14.420;2022-09-13T14:44:22;98725.31;;;24.61;42.11
67740;BME280;54536;50.090;14.420;2022-09-13T14:46:58;98723.19;;;24.63;42.01
67740;BME280;54536;50.090;14.420;2022-09-13T14:49:40;98726.44;;;24.65;42.10
67740;BME280;54536;50.090;14.420;2022-09-13T14:52:23;98722.94;;;24.65;42.25
67740;BME280;54536;50.090;14.420;2022-09-13T14:54:56;98718.38;;;24.65;42.46
67740;BME280;54536;50.090;14.420;2022-09-13T14:57:33;98726.69;;;24.64;42.48
67740;BME280;54536;50.090;14.420;2022-09-13T15:00:27;98710.56;;;24.64;42.75
67740;BME280;54536;50.090;14.420;2022-09-13T15:02:58;98707.97;;;24.69;42.73
67740;BME280;54536;50.090;14.420;2022-09-13T15:05:30;98716.84;;;24.69;42.73
67740;BME280;54536;50.090;14.420;2022-09-13T15:07:58;98709.81;;;24.68;43.27
67740;BME280;54536;50.090;14.420;2022-09-13T15:10:30;98705.84;;;24.71;43.38
67740;BME280;54536;50.090;14.420;2022-09-13T15:17:59;98701.53;;;24.70;44.26
67740;BME280;54536;50.090;14.420;2022-09-13T15:23:19;98705.94;;;24.59;44.66
67740;BME280;54536;50.090;14.420;2022-09-13T15:26:03;98701.94;;;24.62;44.68
67740;BME280;54536;50.090;14.420;2022-09-13T15:28:36;98698.19;;;24.63;44.69
67740;BME280;54536;50.090;14.420;2022-09-13T15:31:19;98706.09;;;24.69;44.79
67740;BME280;54536;50.090;14.420;2022-09-13T15:33:46;98707.56;;;24.60;45.04
67740;BME280;54536;50.090;14.420;2022-09-13T15:36:27;98707.88;;;24.64;45.26
67740;BME280;54536;50.090;14.420;2022-09-13T15:39:14;98709.00;;;24.68;44.54
67740;BME280;54536;50.090;14.420;2022-09-13T15:41:56;98704.72;;;24.67;45.20
67740;BME280;54536;50.090;14.420;2022-09-13T15:44:24;98694.19;;;24.65;44.72
67740;BME280;54536;50.090;14.420;2022-09-13T15:46:53;98689.28;;;24.62;44.22
67740;BME280;54536;50.090;14.420;2022-09-13T15:49:22;98688.47;;;24.62;43.99
67740;BME280;54536;50.090;14.420;2022-09-13T15:51:55;98683.59;;;24.59;43.85
67740;BME280;54536;50.090;14.420;2022-09-13T15:54:22;98690.63;;;24.60;43.83
67740;BME280;54536;50.090;14.420;2022-09-13T15:56:49;98680.41;;;24.62;43.70
67740;BME280;54536;50.090;14.420;2022-09-13T15:59:20;98686.53;;;24.57;44.31
67740;BME280;54536;50.090;14.420;2022-09-13T16:01:48;98687.03;;;24.54;44.02
67740;BME280;54536;50.090;14.420;2022-09-13T16:04:16;98689.56;;;24.44;44.27
67740;BME280;54536;50.090;14.420;2022-09-13T16:06:42;98687.50;;;24.51;44.28
67740;BME280;54536;50.090;14.420;2022-09-13T16:09:20;98689.88;;;24.47;44.31
67740;BME280;54536;50.090;14.420;2022-09-13T16:11:49;98693.69;;;24.51;44.37
67740;BME280;54536;50.090;14.420;2022-09-13T16:14:16;98694.03;;;24.55;44.20
67740;BME280;54536;50.090;14.420;2022-09-13T16:16:44;98684.44;;;24.59;44.31
67740;BME280;54536;50.090;14.420;2022-09-13T16:19:16;98687.59;;;24.56;44.41
67740;BME280;54536;50.090;14.420;2022-09-13T16:21:43;98674.97;;;24.57;44.59
67740;BME280;54536;50.090;14.420;2022-09-13T16:24:10;98676.28;;;24.54;44.74
67740;BME280;54536;50.090;14.420;2022-09-13T16:26:37;98674.66;;;24.53;44.57
67740;BME280;54536;50.090;14.420;2022-09-13T16:29:03;98670.00;;;24.48;44.79
67740;BME280;54536;50.090;14.420;2022-09-13T16:31:29;98666.75;;;24.46;45.02
67740;BME280;54536;50.090;14.420;2022-09-13T16:33:56;98663.50;;;24.44;45.13
67740;BME280;54536;50.090;14.420;2022-09-13T16:36:23;98672.84;;;24.42;45.22
67740;BME280;54536;50.090;14.420;2022-09-13T16:38:49;98663.16;;;24.41;45.54
67740;BME280;54536;50.090;14.420;2022-09-13T16:41:15;98665.16;;;24.34;45.47
67740;BME280;54536;50.090;14.420;2022-09-13T16:43:41;98657.66;;;24.36;45.83
67740;BME280;54536;50.090;14.420;2022-09-13T16:46:10;98661.09;;;24.31;45.97
67740;BME280;54536;50.090;14.420;2022-09-13T16:48:38;98659.97;;;24.27;46.20
67740;BME280;54536;50.090;14.420;2022-09-13T16:51:07;98667.75;;;24.28;46.22
67740;BME280;54536;50.090;14.420;2022-09-13T16:53:36;98673.63;;;24.25;46.47